sensor_id;sensor_type;location;lat;lon;timestamp;P1;durP1;ratioP1;P2;durP2;ratioP2
45344;SDS011;31078;48.304;11.896;2023-06-01T00:01:37;9.20;;;5.32;;
45344;SDS011;31078;48.304;11.896;2023-06-01T00:04:04;10.10;;;5.07;;
45344;SDS011;31078;48.304;11.896;2023-06-01T00:06:32;7.78;;;4.93;;
45344;SDS011;31078;48.304;11.896;2023-06-01T00:08:58;9.15;;;5.60;;
45344;SDS011;31078;48.304;11.896;2023-06-01T00:11:25;8.77;;;5.20;;
45344;SDS011;31078;48.304;11.896;2023-06-01T00:13:52;9.27;;;5.40;;
45344;SDS011;31078;48.304;11.896;2023-06-01T00:16:19;9.57;;;5.07;;
45344;SDS011;31078;48.304;11.896;2023-06-01T00:18:47;8.43;;;5.93;;
45344;SDS011;31078;48.304;11.896;2023-06-01T00:21:16;10.15;;;5.18;;
45344;SDS011;31078;48.304;11.896;2023-06-01T00:23:44;9.35;;;5.22;;
45344;SDS011;31078;48.304;11.896;2023-06-01T00:26:11;9.55;;;5.60;;
45344;SDS011;31078;48.304;11.896;2023-06-01T00:28:38;8.63;;;5.10;;
45344;SDS011;31078;48.304;11.896;2023-06-01T00:31:04;7.93;;;5.15;;
45344;SDS011;31078;48.304;11.896;2023-06-01T00:33:31;9.25;;;5.38;;
45344;SDS011;31078;48.304;11.896;2023-06-01T00:35:57;7.68;;;4.95;;
45344;SDS011;31078;48.304;11.896;2023-06-01T00:38:24;8.52;;;5.00;;
45344;SDS011;31078;48.304;11.896;2023-06-01T00:40:52;8.93;;;5.32;;
45344;SDS011;31078;48.304;11.896;2023-06-01T00:43:18;9.52;;;4.90;;
45344;SDS011;31078;48.304;11.896;2023-06-01T00:45:45;7.82;;;5.03;;
45344;SDS011;31078;48.304;11.896;2023-06-01T00:48:12;7.70;;;5.10;;
45344;SDS011;31078;48.304;11.896;2023-06-01T00:50:40;8.48;;;4.90;;
45344;SDS011;31078;48.304;11.896;2023-06-01T00:53:08;8.68;;;4.50;;
45344;SDS011;31078;48.304;11.896;2023-06-01T00:55:40;9.73;;;5.05;;
45344;SDS011;31078;48.304;11.896;2023-06-01T00:58:08;8.68;;;5.25;;
45344;SDS011;31078;48.304;11.896;2023-06-01T01:00:35;8.93;;;5.40;;
45344;SDS011;31078;48.304;11.896;2023-06-01T01:03:03;9.45;;;5.68;;
45344;SDS011;31078;48.304;11.896;2023-06-01T01:05:32;7.55;;;5.28;;
45344;SDS011;31078;48.304;11.896;2023-06-01T01:08:00;9.90;;;5.07;;
45344;SDS011;31078;48.304;11.896;2023-06-01T01:10:33;7.40;;;4.97;;
45344;SDS011;31078;48.304;11.896;2023-06-01T01:13:06;8.43;;;4.70;;
45344;SDS011;31078;48.304;11.896;2023-06-01T01:15:39;7.32;;;4.68;;
45344;SDS011;31078;48.304;11.896;2023-06-01T01:18:14;9.23;;;5.40;;
45344;SDS011;31078;48.304;11.896;2023-06-01T01:20:45;8.90;;;4.90;;
45344;SDS011;31078;48.304;11.896;2023-06-01T01:23:24;11.25;;;5.45;;
45344;SDS011;31078;48.304;11.896;2023-06-01T01:29:09;9.93;;;5.35;;
45344;SDS011;31078;48.304;11.896;2023-06-01T01:31:39;7.85;;;4.80;;
45344;SDS011;31078;48.304;11.896;2023-06-01T01:34:07;7.72;;;4.68;;
45344;SDS011;31078;48.304;11.896;2023-06-01T01:36:34;9.13;;;5.32;;
45344;SDS011;31078;48.304;11.896;2023-06-01T01:39:01;8.80;;;4.90;;
45344;SDS011;31078;48.304;11.896;2023-06-01T01:41:28;8.43;;;5.05;;
45344;SDS011;31078;48.304;11.896;2023-06-01T01:43:55;8.25;;;5.25;;
45344;SDS011;31078;48.304;11.896;2023-06-01T01:46:25;8.70;;;5.07;;
45344;SDS011;31078;48.304;11.896;2023-06-01T01:48:55;9.00;;;5.53;;
45344;SDS011;31078;48.304;11.896;2023-06-01T01:51:29;8.07;;;5.35;;
45344;SDS011;31078;48.304;11.896;2023-06-01T01:54:03;10.75;;;5.25;;
45344;SDS011;31078;48.304;11.896;2023-06-01T01:56:31;9.45;;;5.88;;
45344;SDS011;31078;48.304;11.896;2023-06-01T01:59:00;9.20;;;6.05;;
45344;SDS011;31078;48.304;11.896;2023-06-01T02:01:28;8.05;;;5.82;;
45344;SDS011;31078;48.304;11.896;2023-06-01T02:03:59;9.63;;;6.05;;
45344;SDS011;31078;48.304;11.896;2023-06-01T02:06:27;10.88;;;5.65;;
45344;SDS011;31078;48.304;11.896;2023-06-01T02:08:53;9.43;;;5.72;;
45344;SDS011;31078;48.304;11.896;2023-06-01T02:11:20;9.73;;;5.63;;
45344;SDS011;31078;48.304;11.896;2023-06-01T02:13:47;10.07;;;5.38;;
45344;SDS011;31078;48.304;11.896;2023-06-01T02:16:14;9.15;;;5.18;;
45344;SDS011;31078;48.304;11.896;2023-06-01T02:18:44;8.68;;;5.68;;
45344;SDS011;31078;48.304;11.896;2023-06-01T02:21:11;9.07;;;5.85;;
45344;SDS011;31078;48.304;11.896;2023-06-01T02:23:38;13.05;;;5.97;;
45344;SDS011;31078;48.304;11.896;2023-06-01T02:26:05;9.00;;;5.20;;
45344;SDS011;31078;48.304;11.896;2023-06-01T02:28:32;9.45;;;5.13;;
45344;SDS011;31078;48.304;11.896;2023-06-01T02:30:58;9.43;;;5.40;;
45344;SDS011;31078;48.304;11.896;2023-06-01T02:33:25;9.40;;;5.45;;
45344;SDS011;31078;48.304;11.896;2023-06-01T02:35:53;8.52;;;5.43;;
45344;SDS011;31078;48.304;11.896;2023-06-01T02:38:19;8.70;;;5.72;;
45344;SDS011;31078;48.304;11.896;2023-06-01T02:40:46;9.75;;;5.72;;
45344;SDS011;31078;48.304;11.896;2023-06-01T02:43:12;9.70;;;6.07;;
45344;SDS011;31078;48.304;11.896;2023-06-01T02:45:39;10.00;;;5.85;;
45344;SDS011;31078;48.304;11.896;2023-06-01T02:48:05;11.50;;;5.80;;
45344;SDS011;31078;48.304;11.896;2023-06-01T02:50:32;8.57;;;5.97;;
45344;SDS011;31078;48.304;11.896;2023-06-01T02:52:59;10.10;;;5.90;;
45344;SDS011;31078;48.304;11.896;2023-06-01T02:55:26;10.13;;;6.00;;
45344;SDS011;31078;48.304;11.896;2023-06-01T02:57:52;11.25;;;5.65;;
45344;SDS011;31078;48.304;11.896;2023-06-01T03:00:19;8.30;;;5.25;;
45344;SDS011;31078;48.304;11.896;2023-06-01T03:02:46;10.60;;;6.20;;
45344;SDS011;31078;48.304;11.896;2023-06-01T03:05:13;10.93;;;6.15;;
45344;SDS011;31078;48.304;11.896;2023-06-01T03:07:42;10.45;;;5.93;;
45344;SDS011;31078;48.304;11.896;2023-06-01T03:10:10;7.80;;;5.38;;
45344;SDS011;31078;48.304;11.896;2023-06-01T03:12:38;9.50;;;5.68;;
45344;SDS011;31078;48.304;11.896;2023-06-01T03:15:05;9.48;;;6.03;;
45344;SDS011;31078;48.304;11.896;2023-06-01T03:17:32;8.00;;;5.80;;
45344;SDS011;31078;48.304;11.896;2023-06-01T03:19:59;9.68;;;6.15;;
45344;SDS011;31078;48.304;11.896;2023-06-01T03:22:25;10.93;;;6.07;;
45344;SDS011;31078;48.304;11.896;2023-06-01T03:24:52;8.10;;;5.82;;
45344;SDS011;31078;48.304;11.896;2023-06-01T03:27:21;13.18;;;6.78;;
45344;SDS011;31078;48.304;11.896;2023-06-01T03:29:47;9.65;;;5.95;;
45344;SDS011;31078;48.304;11.896;2023-06-01T03:32:14;10.77;;;6.00;;
45344;SDS011;31078;48.304;11.896;2023-06-01T03:34:40;8.50;;;5.82;;
45344;SDS011;31078;48.304;11.896;2023-06-01T03:37:07;8.43;;;5.18;;
45344;SDS011;31078;48.304;11.896;2023-06-01T03:39:34;11.00;;;6.20;;
45344;SDS011;31078;48.304;11.896;2023-06-01T03:42:00;9.60;;;5.75;;
45344;SDS011;31078;48.304;11.896;2023-06-01T03:44:28;8.75;;;5.90;;
45344;SDS011;31078;48.304;11.896;2023-06-01T03:46:55;7.65;;;5.60;;
45344;SDS011;31078;48.304;11.896;2023-06-01T03:49:21;10.25;;;5.90;;
45344;SDS011;31078;48.304;11.896;2023-06-01T03:51:48;9.50;;;6.07;;
45344;SDS011;31078;48.304;11.896;2023-06-01T03:54:15;9.70;;;6.00;;
45344;SDS011;31078;48.304;11.896;2023-06-01T03:56:41;11.15;;;6.13;;
45344;SDS011;31078;48.304;11.896;2023-06-01T03:59:08;8.07;;;6.28;;
45344;SDS011;31078;48.304;11.896;2023-06-01T04:01:36;8.70;;;6.07;;
45344;SDS011;31078;48.304;11.896;2023-06-01T04:04:04;8.95;;;5.80;;
45344;SDS011;31078;48.304;11.896;2023-06-01T04:06:33;8.50;;;5.47;;
45344;SDS011;31078;48.304;11.896;2023-06-01T04:09:01;9.18;;;6.03;;
45344;SDS011;31078;48.304;11.896;2023-06-01T04:11:31;10.68;;;6.05;;
45344;SDS011;31078;48.304;11.896;2023-06-01T04:13:58;9.95;;;6.15;;
45344;SDS011;31078;48.304;11.896;2023-06-01T04:16:25;11.77;;;6.85;;
45344;SDS011;31078;48.304;11.896;2023-06-01T04:18:52;12.70;;;7.03;;
45344;SDS011;31078;48.304;11.896;2023-06-01T04:21:20;8.65;;;5.95;;
45344;SDS011;31078;48.304;11.896;2023-06-01T04:23:46;10.80;;;6.13;;
45344;SDS011;31078;48.304;11.896;2023-06-01T04:26:14;9.05;;;5.75;;
45344;SDS011;31078;48.304;11.896;2023-06-01T04:28:40;10.30;;;6.03;;
45344;SDS011;31078;48.304;11.896;2023-06-01T04:31:09;9.38;;;5.90;;
45344;SDS011;31078;48.304;11.896;2023-06-01T04:33:42;9.88;;;6.47;;
45344;SDS011;31078;48.304;11.896;2023-06-01T04:36:11;8.25;;;6.07;;
45344;SDS011;31078;48.304;11.896;2023-06-01T04:38:39;9.07;;;5.85;;
45344;SDS011;31078;48.304;11.896;2023-06-01T04:41:07;9.35;;;5.75;;
45344;SDS011;31078;48.304;11.896;2023-06-01T04:43:35;10.15;;;5.82;;
45344;SDS011;31078;48.304;11.896;2023-06-01T04:46:02;13.23;;;6.72;;
45344;SDS011;31078;48.304;11.896;2023-06-01T04:48:29;10.85;;;5.75;;
45344;SDS011;31078;48.304;11.896;2023-06-01T04:50:57;11.07;;;6.38;;
45344;SDS011;31078;48.304;11.896;2023-06-01T04:53:25;12.57;;;7.07;;
45344;SDS011;31078;48.304;11.896;2023-06-01T04:55:52;10.20;;;5.93;;
45344;SDS011;31078;48.304;11.896;2023-06-01T04:58:19;11.23;;;5.85;;
45344;SDS011;31078;48.304;11.896;2023-06-01T05:00:45;10.80;;;6.22;;
45344;SDS011;31078;48.304;11.896;2023-06-01T05:03:12;9.20;;;5.25;;
45344;SDS011;31078;48.304;11.896;2023-06-01T05:05:39;9.07;;;5.43;;
45344;SDS011;31078;48.304;11.896;2023-06-01T05:08:06;8.88;;;6.13;;
45344;SDS011;31078;48.304;11.896;2023-06-01T05:10:33;7.80;;;5.22;;
45344;SDS011;31078;48.304;11.896;2023-06-01T05:13:00;10.90;;;5.43;;
45344;SDS011;31078;48.304;11.896;2023-06-01T05:15:26;10.90;;;5.43;;
45344;SDS011;31078;48.304;11.896;2023-06-01T05:17:54;10.27;;;5.25;;
45344;SDS011;31078;48.304;11.896;2023-06-01T05:20:21;8.73;;;4.95;;
45344;SDS011;31078;48.304;11.896;2023-06-01T05:22:47;8.85;;;4.82;;
45344;SDS011;31078;48.304;11.896;2023-06-01T05:25:14;8.38;;;4.30;;
45344;SDS011;31078;48.304;11.896;2023-06-01T05:27:41;9.98;;;5.57;;
45344;SDS011;31078;48.304;11.896;2023-06-01T05:30:08;9.25;;;4.68;;
45344;SDS011;31078;48.304;11.896;2023-06-01T05:32:35;9.38;;;4.30;;
45344;SDS011;31078;48.304;11.896;2023-06-01T05:35:02;6.18;;;4.20;;
45344;SDS011;31078;48.304;11.896;2023-06-01T05:37:29;7.68;;;4.07;;
45344;SDS011;31078;48.304;11.896;2023-06-01T05:39:56;10.73;;;4.60;;
45344;SDS011;31078;48.304;11.896;2023-06-01T05:42:22;9.55;;;4.25;;
45344;SDS011;31078;48.304;11.896;2023-06-01T05:44:50;9.30;;;4.32;;
45344;SDS011;31078;48.304;11.896;2023-06-01T05:47:16;9.38;;;4.20;;
45344;SDS011;31078;48.304;11.896;2023-06-01T05:49:43;10.90;;;5.00;;
45344;SDS011;31078;48.304;11.896;2023-06-01T05:52:10;9.35;;;4.40;;
45344;SDS011;31078;48.304;11.896;2023-06-01T05:54:38;10.85;;;4.82;;
45344;SDS011;31078;48.304;11.896;2023-06-01T05:57:05;7.82;;;4.70;;
45344;SDS011;31078;48.304;11.896;2023-06-01T05:59:32;8.63;;;4.15;;
45344;SDS011;31078;48.304;11.896;2023-06-01T06:02:00;6.55;;;3.85;;
45344;SDS011;31078;48.304;11.896;2023-06-01T06:04:26;6.13;;;3.60;;
45344;SDS011;31078;48.304;11.896;2023-06-01T06:06:53;7.10;;;4.13;;
45344;SDS011;31078;48.304;11.896;2023-06-01T06:09:19;8.52;;;4.25;;
45344;SDS011;31078;48.304;11.896;2023-06-01T06:11:46;11.60;;;4.53;;
45344;SDS011;31078;48.304;11.896;2023-06-01T06:14:12;8.40;;;4.35;;
45344;SDS011;31078;48.304;11.896;2023-06-01T06:16:39;9.23;;;4.47;;
45344;SDS011;31078;48.304;11.896;2023-06-01T06:19:07;7.75;;;3.90;;
45344;SDS011;31078;48.304;11.896;2023-06-01T06:21:33;10.00;;;4.88;;
45344;SDS011;31078;48.304;11.896;2023-06-01T06:24:01;8.63;;;4.90;;
45344;SDS011;31078;48.304;11.896;2023-06-01T06:26:28;9.00;;;4.32;;
45344;SDS011;31078;48.304;11.896;2023-06-01T06:28:55;10.25;;;5.30;;
45344;SDS011;31078;48.304;11.896;2023-06-01T06:31:21;9.18;;;4.70;;
45344;SDS011;31078;48.304;11.896;2023-06-01T06:33:48;9.02;;;4.70;;
45344;SDS011;31078;48.304;11.896;2023-06-01T06:36:17;11.57;;;3.97;;
45344;SDS011;31078;48.304;11.896;2023-06-01T06:38:44;12.15;;;4.95;;
45344;SDS011;31078;48.304;11.896;2023-06-01T06:41:11;11.57;;;5.07;;
45344;SDS011;31078;48.304;11.896;2023-06-01T06:43:37;10.73;;;5.00;;
45344;SDS011;31078;48.304;11.896;2023-06-01T06:46:04;7.32;;;4.35;;
45344;SDS011;31078;48.304;11.896;2023-06-01T06:48:31;8.23;;;4.50;;
45344;SDS011;31078;48.304;11.896;2023-06-01T06:50:57;9.02;;;4.65;;
45344;SDS011;31078;48.304;11.896;2023-06-01T06:53:25;7.50;;;4.65;;
45344;SDS011;31078;48.304;11.896;2023-06-01T06:55:51;7.15;;;4.55;;
45344;SDS011;31078;48.304;11.896;2023-06-01T06:58:18;7.80;;;4.38;;
45344;SDS011;31078;48.304;11.896;2023-06-01T07:00:44;7.75;;;4.75;;
45344;SDS011;31078;48.304;11.896;2023-06-01T07:03:11;7.90;;;4.55;;
45344;SDS011;31078;48.304;11.896;2023-06-01T07:05:38;9.82;;;4.93;;
45344;SDS011;31078;48.304;11.896;2023-06-01T07:08:05;9.48;;;5.00;;
45344;SDS011;31078;48.304;11.896;2023-06-01T07:10:32;9.15;;;5.07;;
45344;SDS011;31078;48.304;11.896;2023-06-01T07:12:59;9.77;;;5.05;;
45344;SDS011;31078;48.304;11.896;2023-06-01T07:15:25;10.20;;;4.85;;
45344;SDS011;31078;48.304;11.896;2023-06-01T07:17:52;8.57;;;5.10;;
45344;SDS011;31078;48.304;11.896;2023-06-01T07:20:19;8.43;;;5.03;;
45344;SDS011;31078;48.304;11.896;2023-06-01T07:22:45;7.72;;;4.30;;
45344;SDS011;31078;48.304;11.896;2023-06-01T07:25:12;16.88;;;5.30;;
45344;SDS011;31078;48.304;11.896;2023-06-01T07:27:40;7.43;;;4.28;;
45344;SDS011;31078;48.304;11.896;2023-06-01T07:30:08;8.18;;;4.75;;
45344;SDS011;31078;48.304;11.896;2023-06-01T07:32:37;10.82;;;4.82;;
45344;SDS011;31078;48.304;11.896;2023-06-01T07:35:04;9.20;;;5.15;;
45344;SDS011;31078;48.304;11.896;2023-06-01T07:37:31;11.00;;;4.85;;
45344;SDS011;31078;48.304;11.896;2023-06-01T07:39:58;10.63;;;4.72;;
45344;SDS011;31078;48.304;11.896;2023-06-01T07:42:24;9.38;;;4.95;;
45344;SDS011;31078;48.304;11.896;2023-06-01T07:44:52;8.98;;;4.93;;
45344;SDS011;31078;48.304;11.896;2023-06-01T07:47:19;9.73;;;4.82;;
45344;SDS011;31078;48.304;11.896;2023-06-01T07:49:46;11.55;;;5.18;;
45344;SDS011;31078;48.304;11.896;2023-06-01T07:52:12;12.27;;;4.93;;
45344;SDS011;31078;48.304;11.896;2023-06-01T07:54:39;9.05;;;4.72;;
45344;SDS011;31078;48.304;11.896;2023-06-01T07:57:06;8.18;;;5.07;;
45344;SDS011;31078;48.304;11.896;2023-06-01T07:59:32;8.98;;;3.75;;
45344;SDS011;31078;48.304;11.896;2023-06-01T08:02:00;9.88;;;4.80;;
45344;SDS011;31078;48.304;11.896;2023-06-01T08:04:27;9.18;;;4.95;;
45344;SDS011;31078;48.304;11.896;2023-06-01T08:06:58;8.57;;;4.38;;
45344;SDS011;31078;48.304;11.896;2023-06-01T08:09:28;13.35;;;5.20;;
45344;SDS011;31078;48.304;11.896;2023-06-01T08:11:54;9.13;;;4.57;;
45344;SDS011;31078;48.304;11.896;2023-06-01T08:14:21;10.60;;;6.70;;
45344;SDS011;31078;48.304;11.896;2023-06-01T08:16:48;11.73;;;4.95;;
45344;SDS011;31078;48.304;11.896;2023-06-01T08:19:17;8.77;;;4.68;;
45344;SDS011;31078;48.304;11.896;2023-06-01T08:21:44;12.07;;;5.10;;
45344;SDS011;31078;48.304;11.896;2023-06-01T08:24:10;9.25;;;4.38;;
45344;SDS011;31078;48.304;11.896;2023-06-01T08:26:37;8.45;;;4.32;;
45344;SDS011;31078;48.304;11.896;2023-06-01T08:29:04;7.97;;;4.45;;
45344;SDS011;31078;48.304;11.896;2023-06-01T08:31:31;6.07;;;4.25;;
45344;SDS011;31078;48.304;11.896;2023-06-01T08:33:57;7.85;;;4.53;;
45344;SDS011;31078;48.304;11.896;2023-06-01T08:36:25;8.63;;;4.43;;
45344;SDS011;31078;48.304;11.896;2023-06-01T08:38:53;7.80;;;4.38;;
45344;SDS011;31078;48.304;11.896;2023-06-01T08:41:24;7.13;;;4.70;;
45344;SDS011;31078;48.304;11.896;2023-06-01T08:43:53;7.95;;;4.70;;
45344;SDS011;31078;48.304;11.896;2023-06-01T08:46:21;8.00;;;4.60;;
45344;SDS011;31078;48.304;11.896;2023-06-01T08:48:48;6.28;;;4.20;;
45344;SDS011;31078;48.304;11.896;2023-06-01T08:51:18;9.20;;;4.25;;
45344;SDS011;31078;48.304;11.896;2023-06-01T08:53:47;7.03;;;4.35;;
45344;SDS011;31078;48.304;11.896;2023-06-01T08:56:15;8.52;;;4.78;;
45344;SDS011;31078;48.304;11.896;2023-06-01T08:58:42;10.23;;;4.60;;
45344;SDS011;31078;48.304;11.896;2023-06-01T09:01:09;10.68;;;4.47;;
45344;SDS011;31078;48.304;11.896;2023-06-01T09:03:43;8.32;;;4.25;;
45344;SDS011;31078;48.304;11.896;2023-06-01T09:06:09;7.75;;;4.25;;
45344;SDS011;31078;48.304;11.896;2023-06-01T09:08:37;12.80;;;4.80;;
45344;SDS011;31078;48.304;11.896;2023-06-01T09:11:04;8.55;;;4.32;;
45344;SDS011;31078;48.304;11.896;2023-06-01T09:13:31;10.77;;;4.75;;
45344;SDS011;31078;48.304;11.896;2023-06-01T09:15:58;9.60;;;4.60;;
45344;SDS011;31078;48.304;11.896;2023-06-01T09:18:25;5.90;;;4.05;;
45344;SDS011;31078;48.304;11.896;2023-06-01T09:20:52;9.57;;;4.57;;
45344;SDS011;31078;48.304;11.896;2023-06-01T09:23:25;6.55;;;4.07;;
45344;SDS011;31078;48.304;11.896;2023-06-01T09:26:06;8.73;;;4.78;;
45344;SDS011;31078;48.304;11.896;2023-06-01T09:28:52;10.27;;;4.43;;
45344;SDS011;31078;48.304;11.896;2023-06-01T09:31:35;11.10;;;4.97;;
45344;SDS011;31078;48.304;11.896;2023-06-01T09:34:03;11.05;;;5.03;;
45344;SDS011;31078;48.304;11.896;2023-06-01T09:36:30;7.65;;;3.85;;
45344;SDS011;31078;48.304;11.896;2023-06-01T09:39:00;8.80;;;4.13;;
45344;SDS011;31078;48.304;11.896;2023-06-01T09:41:29;8.50;;;4.35;;
45344;SDS011;31078;48.304;11.896;2023-06-01T09:44:10;8.27;;;4.18;;
45344;SDS011;31078;48.304;11.896;2023-06-01T09:46:45;8.43;;;4.25;;
45344;SDS011;31078;48.304;11.896;2023-06-01T09:49:17;6.28;;;4.07;;
45344;SDS011;31078;48.304;11.896;2023-06-01T09:51:44;10.45;;;4.50;;
45344;SDS011;31078;48.304;11.896;2023-06-01T09:54:20;9.88;;;4.38;;
45344;SDS011;31078;48.304;11.896;2023-06-01T09:56:49;8.27;;;4.18;;
45344;SDS011;31078;48.304;11.896;2023-06-01T09:59:16;6.63;;;4.10;;
45344;SDS011;31078;48.304;11.896;2023-06-01T10:01:42;8.93;;;4.50;;
45344;SDS011;31078;48.304;11.896;2023-06-01T10:04:13;8.88;;;4.13;;
45344;SDS011;31078;48.304;11.896;2023-06-01T10:06:42;8.15;;;4.47;;
45344;SDS011;31078;48.304;11.896;2023-06-01T10:09:10;9.23;;;4.90;;
45344;SDS011;31078;48.304;11.896;2023-06-01T10:11:40;7.50;;;4.53;;
45344;SDS011;31078;48.304;11.896;2023-06-01T10:14:09;13.02;;;4.85;;
45344;SDS011;31078;48.304;11.896;2023-06-01T10:16:36;9.50;;;4.38;;
45344;SDS011;31078;48.304;11.896;2023-06-01T10:19:02;9.32;;;4.70;;
45344;SDS011;31078;48.304;11.896;2023-06-01T10:21:30;7.97;;;4.05;;
45344;SDS011;31078;48.304;11.896;2023-06-01T10:23:58;9.13;;;4.57;;
45344;SDS011;31078;48.304;11.896;2023-06-01T10:26:25;7.47;;;4.63;;
45344;SDS011;31078;48.304;11.896;2023-06-01T10:28:53;13.23;;;5.63;;
45344;SDS011;31078;48.304;11.896;2023-06-01T10:31:38;6.47;;;4.10;;
45344;SDS011;31078;48.304;11.896;2023-06-01T10:34:07;10.93;;;4.78;;
45344;SDS011;31078;48.304;11.896;2023-06-01T10:39:46;8.70;;;4.38;;
45344;SDS011;31078;48.304;11.896;2023-06-01T10:45:04;9.20;;;4.40;;
45344;SDS011;31078;48.304;11.896;2023-06-01T10:47:45;7.93;;;4.28;;
45344;SDS011;31078;48.304;11.896;2023-06-01T10:50:19;6.95;;;3.95;;
45344;SDS011;31078;48.304;11.896;2023-06-01T10:52:45;6.97;;;4.45;;
45344;SDS011;31078;48.304;11.896;2023-06-01T10:55:19;8.57;;;4.47;;
45344;SDS011;31078;48.304;11.896;2023-06-01T10:57:51;5.88;;;4.03;;
45344;SDS011;31078;48.304;11.896;2023-06-01T11:00:19;6.10;;;4.22;;
45344;SDS011;31078;48.304;11.896;2023-06-01T11:02:49;9.57;;;4.38;;
45344;SDS011;31078;48.304;11.896;2023-06-01T11:11:17;7.63;;;4.93;;
45344;SDS011;31078;48.304;11.896;2023-06-01T11:16:36;10.55;;;4.40;;
45344;SDS011;31078;48.304;11.896;2023-06-01T11:19:04;9.50;;;4.63;;
45344;SDS011;31078;48.304;11.896;2023-06-01T11:21:33;12.10;;;4.57;;
45344;SDS011;31078;48.304;11.896;2023-06-01T11:24:04;9.65;;;4.38;;
45344;SDS011;31078;48.304;11.896;2023-06-01T11:26:32;7.75;;;4.63;;
45344;SDS011;31078;48.304;11.896;2023-06-01T11:29:04;9.23;;;4.65;;
45344;SDS011;31078;48.304;11.896;2023-06-01T11:31:34;11.77;;;4.72;;
45344;SDS011;31078;48.304;11.896;2023-06-01T11:34:02;8.63;;;4.40;;
45344;SDS011;31078;48.304;11.896;2023-06-01T11:36:35;5.78;;;3.90;;
45344;SDS011;31078;48.304;11.896;2023-06-01T11:39:03;9.53;;;4.83;;
45344;SDS011;31078;48.304;11.896;2023-06-01T11:41:32;11.77;;;4.40;;
45344;SDS011;31078;48.304;11.896;2023-06-01T11:44:00;16.75;;;4.82;;
45344;SDS011;31078;48.304;11.896;2023-06-01T11:46:26;7.28;;;4.30;;
45344;SDS011;31078;48.304;11.896;2023-06-01T11:48:59;6.55;;;4.03;;
45344;SDS011;31078;48.304;11.896;2023-06-01T11:51:31;6.32;;;4.35;;
45344;SDS011;31078;48.304;11.896;2023-06-01T11:54:00;7.63;;;4.20;;
45344;SDS011;31078;48.304;11.896;2023-06-01T11:56:28;13.35;;;5.25;;
45344;SDS011;31078;48.304;11.896;2023-06-01T11:58:59;8.50;;;4.45;;
45344;SDS011;31078;48.304;11.896;2023-06-01T12:01:26;7.18;;;3.97;;
45344;SDS011;31078;48.304;11.896;2023-06-01T12:03:53;8.32;;;3.97;;
45344;SDS011;31078;48.304;11.896;2023-06-01T12:06:22;7.80;;;4.40;;
45344;SDS011;31078;48.304;11.896;2023-06-01T12:08:52;6.97;;;4.10;;
45344;SDS011;31078;48.304;11.896;2023-06-01T12:11:21;8.60;;;4.25;;
45344;SDS011;31078;48.304;11.896;2023-06-01T12:13:51;8.52;;;4.30;;
45344;SDS011;31078;48.304;11.896;2023-06-01T12:16:18;5.90;;;4.22;;
45344;SDS011;31078;48.304;11.896;2023-06-01T12:18:44;5.38;;;3.85;;
45344;SDS011;31078;48.304;11.896;2023-06-01T12:21:11;8.18;;;4.07;;
45344;SDS011;31078;48.304;11.896;2023-06-01T12:23:38;6.38;;;4.38;;
45344;SDS011;31078;48.304;11.896;2023-06-01T12:26:08;8.43;;;4.70;;
45344;SDS011;31078;48.304;11.896;2023-06-01T12:28:47;7.05;;;4.55;;
45344;SDS011;31078;48.304;11.896;2023-06-01T12:31:16;7.82;;;4.15;;
45344;SDS011;31078;48.304;11.896;2023-06-01T12:33:44;8.95;;;4.50;;
45344;SDS011;31078;48.304;11.896;2023-06-01T12:36:27;10.32;;;3.92;;
45344;SDS011;31078;48.304;11.896;2023-06-01T12:38:56;7.65;;;4.40;;
45344;SDS011;31078;48.304;11.896;2023-06-01T12:41:25;7.90;;;4.35;;
45344;SDS011;31078;48.304;11.896;2023-06-01T12:43:52;10.63;;;4.82;;
45344;SDS011;31078;48.304;11.896;2023-06-01T12:46:19;6.47;;;4.40;;
45344;SDS011;31078;48.304;11.896;2023-06-01T12:48:47;9.02;;;4.32;;
45344;SDS011;31078;48.304;11.896;2023-06-01T12:51:14;8.07;;;4.28;;
45344;SDS011;31078;48.304;11.896;2023-06-01T12:53:41;7.85;;;3.72;;
45344;SDS011;31078;48.304;11.896;2023-06-01T12:56:08;7.38;;;4.38;;
45344;SDS011;31078;48.304;11.896;2023-06-01T12:58:36;9.77;;;4.40;;
45344;SDS011;31078;48.304;11.896;2023-06-01T13:01:03;8.40;;;4.05;;
45344;SDS011;31078;48.304;11.896;2023-06-01T13:03:30;6.20;;;4.28;;
45344;SDS011;31078;48.304;11.896;2023-06-01T13:05:56;11.45;;;5.03;;
45344;SDS011;31078;48.304;11.896;2023-06-01T13:08:23;7.25;;;4.30;;
45344;SDS011;31078;48.304;11.896;2023-06-01T13:10:49;8.00;;;4.78;;
45344;SDS011;31078;48.304;11.896;2023-06-01T13:13:16;11.05;;;4.75;;
45344;SDS011;31078;48.304;11.896;2023-06-01T13:15:44;10.63;;;4.78;;
45344;SDS011;31078;48.304;11.896;2023-06-01T13:18:11;9.90;;;4.68;;
45344;SDS011;31078;48.304;11.896;2023-06-01T13:20:38;7.20;;;3.97;;
45344;SDS011;31078;48.304;11.896;2023-06-01T13:23:05;10.73;;;4.05;;
45344;SDS011;31078;48.304;11.896;2023-06-01T13:25:32;8.10;;;4.13;;
45344;SDS011;31078;48.304;11.896;2023-06-01T13:27:59;7.65;;;4.28;;
45344;SDS011;31078;48.304;11.896;2023-06-01T13:30:26;8.98;;;4.38;;
45344;SDS011;31078;48.304;11.896;2023-06-01T13:32:55;8.27;;;4.45;;
45344;SDS011;31078;48.304;11.896;2023-06-01T13:35:21;6.97;;;4.00;;
45344;SDS011;31078;48.304;11.896;2023-06-01T13:37:48;7.05;;;4.03;;
45344;SDS011;31078;48.304;11.896;2023-06-01T13:40:14;8.85;;;4.57;;
45344;SDS011;31078;48.304;11.896;2023-06-01T13:42:43;5.22;;;3.83;;
45344;SDS011;31078;48.304;11.896;2023-06-01T13:45:10;7.47;;;3.90;;
45344;SDS011;31078;48.304;11.896;2023-06-01T13:47:37;6.78;;;4.47;;
45344;SDS011;31078;48.304;11.896;2023-06-01T13:50:05;6.38;;;4.40;;
45344;SDS011;31078;48.304;11.896;2023-06-01T13:52:33;7.95;;;4.85;;
45344;SDS011;31078;48.304;11.896;2023-06-01T13:54:59;8.60;;;4.60;;
45344;SDS011;31078;48.304;11.896;2023-06-01T13:57:26;8.73;;;5.45;;
45344;SDS011;31078;48.304;11.896;2023-06-01T13:59:53;7.95;;;4.38;;
45344;SDS011;31078;48.304;11.896;2023-06-01T14:02:19;7.40;;;4.10;;
45344;SDS011;31078;48.304;11.896;2023-06-01T14:04:46;7.80;;;4.50;;
45344;SDS011;31078;48.304;11.896;2023-06-01T14:07:14;9.07;;;4.50;;
45344;SDS011;31078;48.304;11.896;2023-06-01T14:09:41;10.68;;;4.47;;
45344;SDS011;31078;48.304;11.896;2023-06-01T14:12:08;5.70;;;3.80;;
45344;SDS011;31078;48.304;11.896;2023-06-01T14:14:35;9.85;;;4.20;;
45344;SDS011;31078;48.304;11.896;2023-06-01T14:17:01;8.93;;;4.28;;
45344;SDS011;31078;48.304;11.896;2023-06-01T14:19:28;9.15;;;4.30;;
45344;SDS011;31078;48.304;11.896;2023-06-01T14:21:54;7.75;;;3.97;;
45344;SDS011;31078;48.304;11.896;2023-06-01T14:24:22;6.20;;;3.88;;
45344;SDS011;31078;48.304;11.896;2023-06-01T14:26:49;10.20;;;4.55;;
45344;SDS011;31078;48.304;11.896;2023-06-01T14:29:15;8.07;;;4.53;;
45344;SDS011;31078;48.304;11.896;2023-06-01T14:31:41;8.13;;;4.47;;
45344;SDS011;31078;48.304;11.896;2023-06-01T14:34:08;7.38;;;4.18;;
45344;SDS011;31078;48.304;11.896;2023-06-01T14:36:35;7.13;;;4.20;;
45344;SDS011;31078;48.304;11.896;2023-06-01T14:39:01;5.78;;;3.85;;
45344;SDS011;31078;48.304;11.896;2023-06-01T14:41:31;7.47;;;4.18;;
45344;SDS011;31078;48.304;11.896;2023-06-01T14:43:58;6.95;;;3.65;;
45344;SDS011;31078;48.304;11.896;2023-06-01T14:46:24;7.15;;;4.22;;
45344;SDS011;31078;48.304;11.896;2023-06-01T14:48:51;6.78;;;3.75;;
45344;SDS011;31078;48.304;11.896;2023-06-01T14:51:17;7.53;;;4.43;;
45344;SDS011;31078;48.304;11.896;2023-06-01T14:53:43;9.68;;;4.15;;